Time;durP1;ratioP1;P1;durP2;ratioP2;P2;SDS_P1;SDS_P2;PMS_P1;PMS_P2;Temp;Humidity;BMP_temperature;BMP_pressure;BME280_temperature;BME280_humidity;BME280_pressure;Samples;Min_cycle;Max_cycle;Signal;HPM_P1;HPM_P2
2023/03/09 00:02:23;;;;;;;32.15;29.23;;;6.70;99.90;;;;;;5206941;28;20115;-66
2023/03/09 00:04:54;;;;;;;34.97;32.25;;;6.70;99.90;;;;;;5206930;28;20068;-66
2023/03/09 00:07:25;;;;;;;32.65;29.92;;;6.60;99.90;;;;;;5206784;28;20080;-66
2023/03/09 00:09:56;;;;;;;31.90;29.23;;;6.80;99.90;;;;;;5206777;28;20370;-66
2023/03/09 00:12:27;;;;;;;31.50;29.13;;;7.00;99.90;;;;;;5206720;28;20033;-66
2023/03/09 00:14:58;;;;;;;33.40;30.92;;;6.80;99.90;;;;;;5206556;28;20029;-66
2023/03/09 00:17:29;;;;;;;33.55;31.13;;;7.00;99.90;;;;;;5206413;28;20025;-66
2023/03/09 00:20:16;;;;;;;33.05;30.17;;;6.90;99.90;;;;;;5206543;28;20057;-66
2023/03/09 00:22:49;;;;;;;32.00;29.27;;;6.90;99.90;;;;;;5206152;28;20053;-66
2023/03/09 00:25:21;;;;;;;29.95;27.52;;;6.80;99.90;;;;;;5203665;28;20037;-66
2023/03/09 00:27:52;;;;;;;30.10;27.58;;;6.70;99.90;;;;;;5185985;28;20066;-65
2023/03/09 00:30:23;;;;;;;32.40;29.75;;;6.70;99.90;;;;;;5185891;28;20033;-66
2023/03/09 00:32:54;;;;;;;33.20;30.27;;;6.70;99.90;;;;;;5185798;28;20032;-66
2023/03/09 00:35:25;;;;;;;32.42;29.95;;;6.70;99.90;;;;;;5185748;28;20026;-66
2023/03/09 00:37:56;;;;;;;32.78;30.17;;;6.40;99.90;;;;;;5185720;28;20030;-66
2023/03/09 00:40:27;;;;;;;33.33;30.52;;;6.50;99.90;;;;;;5185724;28;20033;-66
2023/03/09 00:42:57;;;;;;;35.42;32.47;;;6.70;99.90;;;;;;5185628;28;20490;-66
2023/03/09 00:45:28;;;;;;;33.15;30.30;;;6.60;99.90;;;;;;5185523;28;20414;-66
2023/03/09 00:47:59;;;;;;;31.08;28.55;;;6.60;99.90;;;;;;5185411;28;20029;-66
2023/03/09 00:50:30;;;;;;;32.33;29.60;;;6.60;99.90;;;;;;5185512;28;20502;-65
2023/03/09 00:53:01;;;;;;;34.70;31.88;;;6.50;99.90;;;;;;5185509;28;20054;-66
2023/03/09 00:55:32;;;;;;;31.15;28.88;;;6.50;99.90;;;;;;5189377;28;20032;-66
2023/03/09 00:58:03;;;;;;;34.78;31.98;;;6.50;99.90;;;;;;5205735;28;20605;-66
2023/03/09 01:00:33;;;;;;;33.20;30.77;;;6.20;99.90;;;;;;5205900;28;20032;-66
2023/03/09 01:03:04;;;;;;;39.58;35.85;;;6.10;99.90;;;;;;5204419;28;20037;-66
2023/03/09 01:05:37;;;;;;;35.13;32.10;;;6.10;99.90;;;;;;5205720;28;20025;-66
2023/03/09 01:08:08;;;;;;;35.65;32.85;;;6.10;99.90;;;;;;5205816;28;20384;-66
2023/03/09 01:10:40;;;;;;;34.30;31.80;;;6.20;99.90;;;;;;5205779;28;20025;-65
2023/03/09 01:13:11;;;;;;;34.38;31.67;;;6.10;99.90;;;;;;5205953;28;20018;-66
2023/03/09 01:15:42;;;;;;;37.03;33.85;;;6.10;99.90;;;;;;5205841;28;20029;-66
2023/03/09 01:18:13;;;;;;;39.47;35.63;;;6.10;99.90;;;;;;5204389;28;20047;-66
2023/03/09 01:20:43;;;;;;;35.22;31.88;;;5.80;99.90;;;;;;5205684;28;20036;-65
2023/03/09 01:23:14;;;;;;;41.60;37.53;;;5.90;99.90;;;;;;5205453;28;20501;-66
2023/03/09 01:25:45;;;;;;;36.75;33.40;;;5.70;99.90;;;;;;5205684;28;20026;-66
2023/03/09 01:28:16;;;;;;;34.58;31.55;;;6.00;99.90;;;;;;5205524;28;20026;-65
2023/03/09 01:30:47;;;;;;;33.10;30.33;;;5.90;99.90;;;;;;5203895;28;20024;-66
2023/03/09 01:33:17;;;;;;;31.80;29.25;;;5.50;99.90;;;;;;5205426;28;20485;-66
2023/03/09 01:35:48;;;;;;;32.97;30.27;;;5.60;99.90;;;;;;5205521;28;20068;-66
2023/03/09 01:38:19;;;;;;;33.67;30.60;;;5.70;99.90;;;;;;5205467;28;20477;-66
2023/03/09 01:40:50;;;;;;;30.48;28.10;;;5.70;99.90;;;;;;5205493;28;20048;-66
2023/03/09 01:43:39;;;;;;;32.22;29.48;;;5.60;99.90;;;;;;5205427;28;20033;-66
2023/03/09 01:46:34;;;;;;;32.30;29.60;;;6.00;99.90;;;;;;5205391;28;20017;-66
2023/03/09 01:49:16;;;;;;;32.25;29.67;;;5.80;99.90;;;;;;5205471;28;20057;-66
2023/03/09 01:51:58;;;;;;;30.15;27.63;;;5.80;99.90;;;;;;5205487;28;20029;-66
2023/03/09 01:54:53;;;;;;;35.75;32.60;;;5.50;99.90;;;;;;5205331;28;20045;-67
2023/03/09 01:57:48;;;;;;;34.13;31.40;;;5.70;99.90;;;;;;5205324;28;20112;-67
2023/03/09 02:00:26;;;;;;;34.92;32.28;;;5.80;99.90;;;;;;5205284;28;20033;-67
2023/03/09 02:03:18;;;;;;;34.22;31.23;;;5.70;99.90;;;;;;5205315;28;20096;-67
2023/03/09 02:06:03;;;;;;;38.75;35.00;;;5.50;99.90;;;;;;5205107;28;20478;-66
2023/03/09 02:08:34;;;;;;;37.42;33.83;;;5.70;99.90;;;;;;5206623;28;20029;-66
2023/03/09 02:11:11;;;;;;;36.88;33.90;;;5.70;99.90;;;;;;5209095;28;20029;-66
2023/03/09 02:13:46;;;;;;;33.42;30.77;;;5.40;99.90;;;;;;5208860;28;20052;-66
2023/03/09 02:16:17;;;;;;;33.78;30.67;;;5.50;99.90;;;;;;5208677;28;20021;-66
2023/03/09 02:18:48;;;;;;;32.53;29.58;;;5.60;99.90;;;;;;5208691;28;20029;-66
2023/03/09 02:21:37;;;;;;;32.10;29.25;;;5.60;99.90;;;;;;5207154;28;20040;-66
2023/03/09 02:24:25;;;;;;;31.73;28.75;;;5.40;99.90;;;;;;5208721;28;20098;-66
2023/03/09 02:27:15;;;;;;;31.58;28.75;;;5.10;99.90;;;;;;5208796;28;20502;-66
2023/03/09 02:29:46;;;;;;;31.75;28.67;;;5.30;99.90;;;;;;5208713;28;20389;-66
2023/03/09 02:32:18;;;;;;;29.23;26.10;;;5.30;99.90;;;;;;5206979;28;20025;-66
2023/03/09 02:34:49;;;;;;;30.05;27.45;;;5.30;99.90;;;;;;5197367;28;20025;-66
2023/03/09 02:37:24;;;;;;;29.73;26.85;;;5.10;99.90;;;;;;5208487;28;20076;-66
2023/03/09 02:40:10;;;;;;;32.45;29.30;;;5.10;99.90;;;;;;5208544;28;20061;-66
2023/03/09 02:42:46;;;;;;;30.33;27.65;;;5.40;99.90;;;;;;5208333;28;20060;-66
2023/03/09 02:45:19;;;;;;;31.75;29.00;;;5.30;99.90;;;;;;5208432;28;20030;-65
2023/03/09 02:47:52;;;;;;;27.80;25.40;;;5.00;99.90;;;;;;5206982;28;20033;-65
2023/03/09 02:50:23;;;;;;;30.08;27.60;;;5.20;99.90;;;;;;5208262;28;20130;-65
2023/03/09 02:52:54;;;;;;;29.90;27.42;;;5.30;99.90;;;;;;5208164;28;20029;-66
2023/03/09 02:55:25;;;;;;;31.83;28.85;;;5.10;99.90;;;;;;5208329;28;20397;-65
2023/03/09 02:57:56;;;;;;;31.17;28.25;;;5.00;99.90;;;;;;5207921;28;20488;-66
2023/03/09 03:00:27;;;;;;;31.42;28.80;;;5.00;99.90;;;;;;5207982;28;20489;-65
2023/03/09 03:02:58;;;;;;;30.35;27.48;;;5.20;99.90;;;;;;5207927;28;20053;-65
2023/03/09 03:05:29;;;;;;;28.70;26.30;;;5.00;99.90;;;;;;5207929;28;20018;-66
2023/03/09 03:07:59;;;;;;;27.60;25.00;;;5.00;99.90;;;;;;5207756;28;20543;-66
2023/03/09 03:10:31;;;;;;;30.65;27.90;;;5.10;99.90;;;;;;5206575;28;20030;-66
2023/03/09 03:13:01;;;;;;;29.73;27.00;;;5.10;99.90;;;;;;5207809;28;20079;-66
2023/03/09 03:15:33;;;;;;;29.52;26.15;;;5.20;99.90;;;;;;5207740;28;20807;-66
2023/03/09 03:18:04;;;;;;;30.42;27.63;;;5.00;99.90;;;;;;5207536;28;20355;-66
2023/03/09 03:20:35;;;;;;;28.92;26.42;;;5.10;99.90;;;;;;5197316;28;20022;-66
2023/03/09 03:23:06;;;;;;;29.88;27.27;;;5.00;99.90;;;;;;5186739;28;20555;-66
2023/03/09 03:25:36;;;;;;;30.13;27.55;;;5.10;99.90;;;;;;5187164;28;20076;-65
2023/03/09 03:28:07;;;;;;;31.85;28.75;;;4.90;99.90;;;;;;5185789;28;20026;-66
2023/03/09 03:30:38;;;;;;;32.28;29.30;;;5.30;99.90;;;;;;5186884;28;20179;-66
2023/03/09 03:33:09;;;;;;;33.13;30.23;;;5.30;99.90;;;;;;5186963;28;20030;-66
2023/03/09 03:35:40;;;;;;;35.35;32.08;;;5.20;99.90;;;;;;5190926;28;20136;-66
2023/03/09 03:38:12;;;;;;;30.10;27.45;;;5.00;99.90;;;;;;5189947;28;20021;-66
2023/03/09 03:40:42;;;;;;;30.67;27.83;;;5.40;99.90;;;;;;5186858;28;20752;-65
2023/03/09 03:43:13;;;;;;;31.95;29.02;;;5.60;99.90;;;;;;5186825;28;20092;-66
2023/03/09 03:45:44;;;;;;;34.28;31.05;;;5.30;99.90;;;;;;5186571;28;20042;-66
2023/03/09 03:48:15;;;;;;;74.85;48.80;;;5.30;99.90;;;;;;5186611;28;20029;-65
2023/03/09 03:50:46;;;;;;;92.75;62.67;;;5.20;99.90;;;;;;5185204;28;20159;-66
2023/03/09 03:53:17;;;;;;;99.70;75.70;;;5.30;99.90;;;;;;5186626;28;20046;-66
2023/03/09 03:55:47;;;;;;;117.30;75.70;;;5.20;99.90;;;;;;5190743;28;20088;-65
2023/03/09 03:58:18;;;;;;;171.93;91.82;;;5.10;99.90;;;;;;5206809;28;20048;-66
2023/03/09 04:00:49;;;;;;;143.55;77.47;;;5.00;99.90;;;;;;5205749;28;20094;-66
2023/03/09 04:03:20;;;;;;;125.97;71.93;;;5.30;99.90;;;;;;5206449;28;20124;-66
2023/03/09 04:05:51;;;;;;;117.28;70.05;;;5.40;99.90;;;;;;5206705;28;20021;-65
2023/03/09 04:08:22;;;;;;;114.93;64.28;;;5.30;99.90;;;;;;5206721;28;20021;-66
2023/03/09 04:10:53;;;;;;;132.73;71.95;;;5.10;99.90;;;;;;5206662;28;20041;-66
2023/03/09 04:13:24;;;;;;;145.52;78.93;;;5.00;99.90;;;;;;5205635;28;20385;-65
2023/03/09 04:15:55;;;;;;;133.85;71.38;;;5.10;99.90;;;;;;5205282;28;20104;-65
2023/03/09 04:18:26;;;;;;;113.93;67.53;;;5.30;99.90;;;;;;5206372;28;20525;-66
2023/03/09 04:20:56;;;;;;;146.25;71.80;;;5.10;99.90;;;;;;5206412;28;20017;-65
2023/03/09 04:23:27;;;;;;;216.68;100.43;;;4.80;99.90;;;;;;5204971;28;20088;-66
2023/03/09 04:26:01;;;;;;;175.05;88.10;;;5.00;99.90;;;;;;5205986;28;20030;-66
2023/03/09 04:28:32;;;;;;;147.60;80.60;;;5.00;99.90;;;;;;5206245;28;20489;-65
2023/03/09 04:31:03;;;;;;;141.98;91.20;;;5.10;99.90;;;;;;5205702;28;20021;-65
2023/03/09 04:33:34;;;;;;;123.72;79.05;;;4.90;99.90;;;;;;5205051;28;20040;-65
2023/03/09 04:36:05;;;;;;;115.47;78.45;;;5.10;99.90;;;;;;5206114;28;20022;-65
2023/03/09 04:38:36;;;;;;;107.97;75.85;;;5.00;99.90;;;;;;5206036;28;20079;-65
2023/03/09 04:41:10;;;;;;;101.78;74.45;;;5.30;99.90;;;;;;5206081;28;20022;-65
2023/03/09 04:43:41;;;;;;;88.70;71.22;;;4.90;99.90;;;;;;5205993;28;20037;-65
2023/03/09 04:46:12;;;;;;;94.78;74.25;;;4.90;99.90;;;;;;5205975;28;20075;-65
2023/03/09 04:48:43;;;;;;;93.32;69.47;;;4.90;99.90;;;;;;5206027;28;20112;-65
2023/03/09 04:51:14;;;;;;;94.03;70.75;;;5.00;99.90;;;;;;5205929;28;20149;-65
2023/03/09 04:53:45;;;;;;;88.43;70.43;;;5.00;99.90;;;;;;5205884;28;20067;-65
2023/03/09 04:56:16;;;;;;;78.63;67.55;;;5.00;99.90;;;;;;5205973;28;20045;-65
2023/03/09 04:58:47;;;;;;;85.88;68.38;;;5.20;99.90;;;;;;5205832;28;20076;-65
2023/03/09 05:01:18;;;;;;;77.18;61.22;;;5.00;99.90;;;;;;5205510;28;20029;-65
2023/03/09 05:03:48;;;;;;;73.75;62.60;;;5.10;99.90;;;;;;5205666;28;20456;-66
2023/03/09 05:06:19;;;;;;;75.32;59.67;;;5.10;99.90;;;;;;5205747;28;20084;-66
2023/03/09 05:08:50;;;;;;;71.50;59.92;;;5.00;99.90;;;;;;5205738;28;20375;-66
2023/03/09 05:11:21;;;;;;;67.15;57.35;;;5.10;99.90;;;;;;5205778;28;20061;-66
2023/03/09 05:13:52;;;;;;;65.28;53.97;;;5.50;99.90;;;;;;5205813;28;20029;-66
2023/03/09 05:16:23;;;;;;;62.15;51.55;;;5.60;99.90;;;;;;5205550;28;20029;-66
2023/03/09 05:18:54;;;;;;;66.68;55.38;;;5.90;99.90;;;;;;5205563;28;20025;-66
2023/03/09 05:21:25;;;;;;;50.50;45.22;;;6.30;99.90;;;;;;5205447;28;20080;-66
2023/03/09 05:23:55;;;;;;;55.15;43.58;;;8.20;99.90;;;;;;5205487;28;21105;-65
2023/03/09 05:26:28;;;;;;;49.67;41.45;;;9.40;99.90;;;;;;5204211;28;20033;-65
2023/03/09 05:28:59;;;;;;;48.20;39.40;;;9.40;99.90;;;;;;5205589;28;20022;-66
2023/03/09 05:31:30;;;;;;;47.63;37.95;;;9.90;99.90;;;;;;5205522;28;20036;-66
2023/03/09 05:34:00;;;;;;;46.50;35.63;;;10.10;99.90;;;;;;5205389;28;20026;-65
2023/03/09 05:36:31;;;;;;;43.88;33.53;;;10.30;99.90;;;;;;5205481;28;20028;-66
2023/03/09 05:39:03;;;;;;;39.00;34.72;;;10.30;99.90;;;;;;5205421;28;20037;-66
2023/03/09 05:41:34;;;;;;;36.50;32.30;;;10.50;99.90;;;;;;5205574;28;20555;-66
2023/03/09 05:44:05;;;;;;;34.38;30.70;;;10.60;99.90;;;;;;5207790;28;20029;-66
2023/03/09 05:46:36;;;;;;;33.15;28.00;;;10.60;99.90;;;;;;5209447;28;20082;-63
2023/03/09 05:49:06;;;;;;;35.92;29.23;;;10.70;99.90;;;;;;5209372;28;20022;-62
2023/03/09 05:51:37;;;;;;;34.30;27.35;;;10.80;99.90;;;;;;5209304;28;20036;-64
2023/03/09 05:54:08;;;;;;;34.95;26.95;;;10.90;99.90;;;;;;5209538;28;20109;-64
2023/03/09 05:56:39;;;;;;;31.33;27.40;;;11.00;99.90;;;;;;5209486;28;20457;-64
2023/03/09 05:59:10;;;;;;;29.40;25.95;;;11.10;99.90;;;;;;5209162;28;20048;-64
2023/03/09 06:01:41;;;;;;;28.77;25.33;;;11.20;99.90;;;;;;5209268;28;20029;-64
2023/03/09 06:04:12;;;;;;;28.40;24.48;;;11.40;99.90;;;;;;5208569;28;20469;-64
2023/03/09 06:06:42;;;;;;;26.65;23.80;;;11.50;99.90;;;;;;5209212;28;20022;-64
2023/03/09 06:09:13;;;;;;;29.23;24.20;;;11.70;99.90;;;;;;5207771;28;20435;-64
2023/03/09 06:11:44;;;;;;;29.08;23.67;;;11.90;99.90;;;;;;5209025;28;20071;-64
2023/03/09 06:14:16;;;;;;;27.35;24.65;;;12.10;99.90;;;;;;5208930;28;20021;-64
2023/03/09 06:16:46;;;;;;;28.25;23.80;;;12.10;99.90;;;;;;5208542;28;20033;-64
2023/03/09 06:19:17;;;;;;;28.20;25.38;;;12.30;99.90;;;;;;5208068;28;20041;-64
2023/03/09 06:21:48;;;;;;;26.45;24.05;;;12.40;99.90;;;;;;5207359;28;20049;-64
2023/03/09 06:24:19;;;;;;;28.38;25.73;;;12.50;99.90;;;;;;5207214;28;20064;-64
2023/03/09 06:26:50;;;;;;;29.00;25.55;;;12.30;99.90;;;;;;5208667;28;20025;-64
2023/03/09 06:29:21;;;;;;;29.23;26.42;;;12.30;99.90;;;;;;5208742;28;20397;-64
2023/03/09 06:31:51;;;;;;;30.50;27.65;;;12.40;99.90;;;;;;5208556;28;20021;-64
2023/03/09 06:34:22;;;;;;;28.13;25.60;;;12.40;99.90;;;;;;5208434;28;20040;-64
2023/03/09 06:36:53;;;;;;;28.65;25.95;;;12.60;99.90;;;;;;5208653;28;20049;-64
2023/03/09 06:39:24;;;;;;;29.63;26.98;;;12.70;99.90;;;;;;5208425;28;20036;-64
2023/03/09 06:41:55;;;;;;;29.30;25.83;;;12.80;99.90;;;;;;5208009;28;20022;-64
2023/03/09 06:44:25;;;;;;;27.38;25.13;;;13.20;99.90;;;;;;5208121;28;20037;-64
2023/03/09 06:46:56;;;;;;;26.35;24.00;;;13.20;99.90;;;;;;5208244;28;20108;-64
2023/03/09 06:49:27;;;;;;;25.42;23.08;;;13.20;99.90;;;;;;5208243;28;20029;-64
2023/03/09 06:51:58;;;;;;;26.05;23.35;;;13.40;99.90;;;;;;5208174;28;20478;-64
2023/03/09 06:54:29;;;;;;;28.83;26.27;;;13.40;99.90;;;;;;5207620;28;20474;-64
2023/03/09 06:57:00;;;;;;;26.58;24.52;;;13.30;99.90;;;;;;5208086;28;20026;-64
2023/03/09 06:59:31;;;;;;;25.38;23.02;;;13.50;99.90;;;;;;5207976;28;20537;-64
2023/03/09 07:02:02;;;;;;;30.48;28.30;;;13.70;99.90;;;;;;5208119;28;20053;-64
2023/03/09 07:04:32;;;;;;;25.65;23.50;;;13.70;99.90;;;;;;5207892;28;20077;-65
2023/03/09 07:07:03;;;;;;;24.85;22.60;;;13.70;99.90;;;;;;5208236;28;20113;-65
2023/03/09 07:09:34;;;;;;;23.60;21.45;;;13.60;99.90;;;;;;5208194;28;20033;-64
2023/03/09 07:12:06;;;;;;;24.33;22.05;;;14.00;99.90;;;;;;5208007;28;20022;-64
2023/03/09 07:14:36;;;;;;;21.67;19.95;;;14.10;99.90;;;;;;5207861;28;20061;-64
2023/03/09 07:17:13;;;;;;;24.00;22.10;;;14.20;99.90;;;;;;5207578;28;20103;-64
2023/03/09 07:19:44;;;;;;;22.52;20.38;;;14.30;99.90;;;;;;5207777;28;20479;-64
2023/03/09 07:22:15;;;;;;;29.90;27.33;;;14.50;99.90;;;;;;5207394;28;20041;-64
2023/03/09 07:24:45;;;;;;;20.60;18.55;;;14.60;99.90;;;;;;5207609;28;20041;-64
2023/03/09 07:27:18;;;;;;;26.55;24.52;;;14.60;99.90;;;;;;5207618;28;20097;-64
2023/03/09 07:29:49;;;;;;;30.25;27.88;;;14.50;99.90;;;;;;5207456;28;20033;-64
2023/03/09 07:32:20;;;;;;;26.42;24.25;;;14.60;99.90;;;;;;5207561;28;20480;-64
2023/03/09 07:34:51;;;;;;;26.48;24.27;;;14.60;99.90;;;;;;5207468;28;20017;-64
2023/03/09 07:37:22;;;;;;;27.67;25.35;;;14.80;99.90;;;;;;5207320;28;20022;-64
2023/03/09 07:39:53;;;;;;;21.08;19.33;;;14.80;99.90;;;;;;5207414;28;20029;-64
2023/03/09 07:42:23;;;;;;;38.40;35.47;;;15.00;99.90;;;;;;5207208;28;20024;-64
2023/03/09 07:44:54;;;;;;;22.52;20.70;;;14.70;99.90;;;;;;5207200;28;20065;-64
2023/03/09 07:47:25;;;;;;;21.75;19.63;;;14.80;99.90;;;;;;5207205;28;20068;-64
2023/03/09 07:49:56;;;;;;;51.40;47.97;;;14.90;99.90;;;;;;5207094;28;20029;-64
2023/03/09 07:52:30;;;;;;;82.63;77.60;;;15.00;99.90;;;;;;5206881;28;20033;-64
2023/03/09 07:55:01;;;;;;;34.10;31.50;;;14.90;99.90;;;;;;5206882;28;20025;-64
2023/03/09 07:57:32;;;;;;;18.23;16.42;;;15.10;99.90;;;;;;5206996;28;20037;-65
2023/03/09 08:00:10;;;;;;;17.83;16.05;;;15.40;99.90;;;;;;5206846;28;20473;-64
2023/03/09 08:02:42;;;;;;;17.52;15.85;;;15.60;99.90;;;;;;5206703;28;20033;-65
2023/03/09 08:05:13;;;;;;;17.95;16.55;;;15.40;99.90;;;;;;5205679;28;20110;-64
2023/03/09 08:07:46;;;;;;;22.52;20.60;;;15.50;99.90;;;;;;5206161;28;20033;-64
2023/03/09 08:10:18;;;;;;;79.25;73.35;;;15.40;99.90;;;;;;5206470;28;20022;-65
2023/03/09 08:12:50;;;;;;;20.65;18.75;;;15.40;99.90;;;;;;5206546;28;20108;-64
2023/03/09 08:15:22;;;;;;;17.77;15.77;;;15.70;99.90;;;;;;5205246;28;20448;-65
2023/03/09 08:17:53;;;;;;;21.27;19.00;;;15.90;99.90;;;;;;5205109;28;20030;-64
2023/03/09 08:20:24;;;;;;;28.17;25.67;;;15.80;99.90;;;;;;5206541;28;20064;-65
2023/03/09 08:22:54;;;;;;;29.08;26.67;;;16.00;99.90;;;;;;5206179;28;20069;-64
2023/03/09 08:25:25;;;;;;;26.58;24.27;;;15.90;99.90;;;;;;5206757;28;20052;-65
2023/03/09 08:27:58;;;;;;;21.30;19.63;;;15.80;99.90;;;;;;5205180;28;20021;-65
2023/03/09 08:30:29;;;;;;;20.63;18.80;;;16.10;99.90;;;;;;5206127;28;20801;-65
2023/03/09 08:33:00;;;;;;;49.63;45.85;;;16.10;99.90;;;;;;5206092;28;20104;-64
2023/03/09 08:35:32;;;;;;;21.92;20.13;;;16.20;99.90;;;;;;5206151;28;20410;-64
2023/03/09 08:38:03;;;;;;;20.98;19.15;;;16.20;99.90;;;;;;5206007;28;20017;-65
2023/03/09 08:40:34;;;;;;;20.15;18.35;;;16.40;99.90;;;;;;5206161;28;20076;-65
2023/03/09 08:43:05;;;;;;;19.08;17.17;;;16.80;99.90;;;;;;5206141;28;20120;-64
2023/03/09 08:45:37;;;;;;;17.80;16.20;;;16.90;99.90;;;;;;5205874;28;20061;-65
2023/03/09 08:48:08;;;;;;;26.35;23.85;;;16.90;99.90;;;;;;5205987;28;20026;-65
2023/03/09 08:50:40;;;;;;;22.10;19.98;;;16.90;99.90;;;;;;5206031;28;20036;-65
2023/03/09 08:53:11;;;;;;;22.33;20.50;;;17.00;99.90;;;;;;5206065;28;20112;-65
2023/03/09 08:55:42;;;;;;;31.98;29.33;;;17.40;99.90;;;;;;5206052;28;20442;-65
2023/03/09 08:58:13;;;;;;;23.23;21.45;;;17.40;99.90;;;;;;5205904;28;20049;-65
2023/03/09 09:00:44;;;;;;;33.10;30.85;;;17.50;99.90;;;;;;5205929;28;20465;-65
2023/03/09 09:03:15;;;;;;;23.13;21.13;;;17.30;99.90;;;;;;5205797;28;20037;-65
2023/03/09 09:05:46;;;;;;;18.25;16.55;;;17.60;99.90;;;;;;5205682;28;20021;-65
2023/03/09 09:09:50;;;;;;;48.78;45.58;;;17.30;99.90;;;;;;5286317;27;20395;-64
2023/03/09 09:12:21;;;;;;;24.38;22.67;;;17.50;99.90;;;;;;5286258;28;20051;-64
2023/03/09 09:14:52;;;;;;;21.27;19.73;;;17.40;99.90;;;;;;5286171;28;20035;-65
2023/03/09 09:17:23;;;;;;;21.73;20.25;;;17.60;99.90;;;;;;5286117;28;20027;-65
2023/03/09 09:19:54;;;;;;;30.58;28.58;;;18.00;99.90;;;;;;5286133;28;20020;-64
2023/03/09 09:22:25;;;;;;;44.50;41.80;;;18.10;99.90;;;;;;5286059;28;20429;-64
2023/03/09 09:24:56;;;;;;;20.15;18.85;;;18.00;99.90;;;;;;5285937;28;20028;-65
2023/03/09 09:27:27;;;;;;;27.02;25.25;;;18.30;99.90;;;;;;5285959;28;20020;-63
2023/03/09 09:29:57;;;;;;;19.60;18.15;;;18.60;99.90;;;;;;5285930;28;20043;-62
2023/03/09 09:32:28;;;;;;;24.05;22.33;;;18.70;99.90;;;;;;5286046;28;20379;-64
2023/03/09 09:35:00;;;;;;;25.65;23.92;;;18.60;99.90;;;;;;5285860;28;20032;-63
2023/03/09 09:37:31;;;;;;;26.45;24.67;;;18.70;99.90;;;;;;5285571;28;20020;-63
2023/03/09 09:40:03;;;;;;;24.77;23.08;;;18.30;99.90;;;;;;5285644;28;20051;-63
2023/03/09 09:42:38;;;;;;;23.42;19.75;;;18.50;99.90;;;;;;5285729;28;20049;-65
2023/03/09 09:45:30;;;;;;;38.45;35.95;;;18.80;99.90;;;;;;5285818;28;20039;-64
2023/03/09 09:48:07;;;;;;;24.33;22.50;;;18.70;99.90;;;;;;5286065;28;20024;-65
2023/03/09 09:51:07;;;;;;;34.30;32.03;;;18.50;99.90;;;;;;5285780;28;20084;-65
2023/03/09 09:54:10;;;;;;;27.52;25.73;;;18.80;99.90;;;;;;5285722;28;20036;-64
2023/03/09 09:56:58;;;;;;;37.05;34.63;;;18.60;99.90;;;;;;5247374;28;20048;-63
2023/03/09 09:59:57;;;;;;;29.52;27.80;;;18.80;99.90;;;;;;5285613;28;20023;-64
2023/03/09 10:02:50;;;;;;;29.80;27.85;;;18.70;99.90;;;;;;5285649;28;20044;-64
2023/03/09 10:05:50;;;;;;;21.77;20.25;;;19.20;99.90;;;;;;5285352;28;20046;-65
2023/03/09 10:08:29;;;;;;;35.47;33.45;;;19.50;99.90;;;;;;5285101;28;20514;-63
2023/03/09 10:11:12;;;;;;;43.92;41.13;;;19.40;99.90;;;;;;5285376;28;20053;-63
2023/03/09 10:13:49;;;;;;;92.35;86.80;;;19.20;99.90;;;;;;5285172;28;20028;-63
2023/03/09 10:16:27;;;;;;;41.80;39.13;;;18.80;99.90;;;;;;5285119;28;20099;-65
2023/03/09 10:19:01;;;;;;;23.48;21.83;;;19.00;99.90;;;;;;5283967;28;20032;-65
2023/03/09 10:21:45;;;;;;;22.13;20.70;;;19.20;99.90;;;;;;5270608;28;20537;-64
2023/03/09 10:24:27;;;;;;;48.67;45.67;;;19.10;99.90;;;;;;5270892;28;20488;-67
2023/03/09 10:27:04;;;;;;;156.05;146.80;;;19.40;99.90;;;;;;5271028;28;20067;-68
2023/03/09 10:29:46;;;;;;;129.77;122.00;;;19.00;99.90;;;;;;5270796;28;20060;-67
2023/03/09 10:32:25;;;;;;;126.28;119.03;;;19.00;99.90;;;;;;5270917;28;20368;-68
2023/03/09 10:35:05;;;;;;;30.27;28.40;;;19.40;99.90;;;;;;5270685;28;20066;-68
2023/03/09 10:37:37;;;;;;;49.50;46.75;;;20.00;99.90;;;;;;5270475;28;20078;-68
2023/03/09 10:40:37;;;;;;;42.25;39.60;;;20.00;99.90;;;;;;5270558;28;20085;-67
2023/03/09 10:43:32;;;;;;;137.43;129.73;;;20.00;99.90;;;;;;5270231;28;20040;-68
2023/03/09 10:46:12;;;;;;;46.95;44.13;;;19.80;99.90;;;;;;5270341;28;20028;-67
2023/03/09 10:48:44;;;;;;;180.85;168.77;;;19.80;99.90;;;;;;5270394;28;20470;-67
2023/03/09 10:51:30;;;;;;;23.42;21.33;;;19.60;99.90;;;;;;5270476;28;20031;-67
2023/03/09 10:54:41;;;;;;;62.25;58.30;;;19.20;99.90;;;;;;5270636;28;20058;-67
2023/03/09 10:57:31;;;;;;;57.65;54.28;;;19.50;99.90;;;;;;5229795;28;20043;-67
2023/03/09 11:00:14;;;;;;;142.43;133.82;;;19.50;99.90;;;;;;5270416;28;20028;-67
2023/03/09 11:02:53;;;;;;;46.83;43.97;;;18.90;99.90;;;;;;5270710;28;20483;-67
2023/03/09 11:05:30;;;;;;;38.35;35.97;;;19.80;99.90;;;;;;5270303;28;20027;-67
2023/03/09 11:08:02;;;;;;;38.15;35.65;;;19.70;99.90;;;;;;5268693;28;20040;-68
2023/03/09 11:10:34;;;;;;;47.58;44.50;;;19.50;99.90;;;;;;5270140;28;20028;-67
2023/03/09 11:13:05;;;;;;;48.60;45.38;;;19.80;99.90;;;;;;5270021;28;20023;-67
2023/03/09 11:15:37;;;;;;;29.50;27.60;;;19.70;99.90;;;;;;5269927;28;20024;-66
2023/03/09 11:18:29;;;;;;;30.95;29.05;;;19.30;99.90;;;;;;5269891;28;20028;-66
2023/03/09 11:21:00;;;;;;;185.98;174.90;;;19.70;99.90;;;;;;5269867;28;20040;-67
2023/03/09 11:23:37;;;;;;;103.43;97.35;;;19.40;99.90;;;;;;5269574;28;20552;-66
2023/03/09 11:26:20;;;;;;;45.50;42.67;;;19.40;99.90;;;;;;5269853;28;20107;-66
2023/03/09 11:29:28;;;;;;;124.93;117.20;;;19.40;99.90;;;;;;5269723;28;20042;-67
2023/03/09 11:31:59;;;;;;;324.35;303.50;;;19.10;99.90;;;;;;5268695;28;20027;-67
2023/03/09 11:34:40;;;;;;;25.08;23.17;;;18.90;99.90;;;;;;5269531;28;20455;-67
2023/03/09 11:37:18;;;;;;;48.10;45.00;;;19.10;99.90;;;;;;5265247;28;20024;-67
2023/03/09 11:40:10;;;;;;;43.22;40.53;;;19.50;99.90;;;;;;5248538;28;20085;-67
2023/03/09 11:43:14;;;;;;;24.08;22.60;;;19.50;99.90;;;;;;5267661;28;20024;-67
2023/03/09 11:45:45;;;;;;;39.05;36.60;;;19.40;99.90;;;;;;5252728;28;20028;-67
2023/03/09 11:48:25;;;;;;;95.32;89.75;;;19.10;99.90;;;;;;5269100;28;20062;-67
2023/03/09 11:51:05;;;;;;;;;;;18.80;99.90;;;;;;5254640;28;20024;-66
2023/03/09 11:53:39;;;;;;;;;;;18.90;99.90;;;;;;5248613;28;20241;-67
2023/03/09 11:56:17;;;;;;;215.95;202.25;;;18.90;99.90;;;;;;5252540;28;19998;-67
2023/03/09 11:58:53;;;;;;;31.17;29.27;;;18.60;99.90;;;;;;5268933;28;20028;-67
2023/03/09 12:01:55;;;;;;;30.40;28.08;;;18.60;99.90;;;;;;5268849;28;20030;-66
2023/03/09 12:04:26;;;;;;;41.38;38.85;;;18.50;99.90;;;;;;5268754;28;20077;-66
2023/03/09 12:07:11;;;;;;;38.33;36.13;;;18.40;99.90;;;;;;5268852;28;20115;-67
2023/03/09 12:09:59;;;;;;;40.45;38.03;;;18.80;99.90;;;;;;5268550;28;20055;-67
2023/03/09 12:12:45;;;;;;;82.78;77.55;;;18.40;99.90;;;;;;5268741;28;20035;-66
2023/03/09 12:15:47;;;;;;;33.08;30.80;;;18.30;99.90;;;;;;5268688;28;20382;-66
2023/03/09 12:18:25;;;;;;;282.02;263.58;;;18.40;99.90;;;;;;5268096;28;20043;-67
2023/03/09 12:21:08;;;;;;;34.92;32.75;;;18.40;99.90;;;;;;5267986;28;20446;-67
2023/03/09 12:23:42;;;;;;;39.65;37.15;;;18.50;99.90;;;;;;5255240;28;20033;-67
2023/03/09 12:26:29;;;;;;;39.08;36.67;;;18.40;99.90;;;;;;5247601;28;20025;-67
2023/03/09 12:29:26;;;;;;;66.78;62.20;;;18.50;99.90;;;;;;5255548;28;20067;-67
2023/03/09 12:32:18;;;;;;;133.65;124.93;;;18.50;99.90;;;;;;5268460;28;20041;-67
2023/03/09 12:34:51;;;;;;;49.90;47.05;;;18.50;99.90;;;;;;5268331;28;20035;-67
2023/03/09 12:37:30;;;;;;;40.58;38.00;;;18.60;99.90;;;;;;5268347;28;20056;-67
2023/03/09 12:40:15;;;;;;;45.47;42.80;;;18.70;99.90;;;;;;5268222;28;20024;-67
2023/03/09 12:42:48;;;;;;;26.58;24.92;;;18.60;99.90;;;;;;5268228;28;20444;-67
2023/03/09 12:45:22;;;;;;;33.17;31.35;;;19.10;99.90;;;;;;5266755;28;20050;-67
2023/03/09 12:48:15;;;;;;;56.05;52.70;;;18.80;99.90;;;;;;5268013;28;20111;-67
2023/03/09 12:50:46;;;;;;;24.92;23.35;;;18.60;99.90;;;;;;5266955;28;20375;-67
2023/03/09 12:53:21;;;;;;;44.58;41.83;;;19.00;99.90;;;;;;5268051;28;20019;-67
2023/03/09 12:56:03;;;;;;;27.55;25.92;;;18.60;99.90;;;;;;5268066;28;20028;-67
2023/03/09 12:58:41;;;;;;;170.48;159.75;;;18.80;99.90;;;;;;5268120;28;20023;-67
2023/03/09 13:01:18;;;;;;;48.10;45.28;;;18.30;99.90;;;;;;5268199;28;20012;-67
2023/03/09 13:04:13;;;;;;;140.85;133.00;;;18.70;99.90;;;;;;5267987;28;20503;-67
2023/03/09 13:06:59;;;;;;;27.40;25.58;;;18.40;99.90;;;;;;5267984;28;20053;-67
2023/03/09 13:09:41;;;;;;;99.57;94.03;;;18.50;99.90;;;;;;5266212;28;20059;-67
2023/03/09 13:12:19;;;;;;;244.30;230.25;;;18.50;99.90;;;;;;5267898;28;20560;-67